createdAt,value
2023-12-20T00:04:58.487Z,95999.88
2023-12-20T00:15:42.038Z,95991.56
2023-12-20T00:20:59.063Z,95996.03
2023-12-20T00:31:40.032Z,95969.63
2023-12-20T00:36:56.306Z,95972.25
2023-12-20T00:42:03.919Z,95963.50
2023-12-20T00:47:56.557Z,95959.59
2023-12-20T00:58:57.407Z,95951.91
2023-12-20T01:04:05.180Z,95963.69
2023-12-20T01:09:53.222Z,95971.38
2023-12-20T01:15:00.953Z,95969.56
2023-12-20T01:25:55.300Z,95976.97
2023-12-20T01:31:02.929Z,95979.78
2023-12-20T01:42:01.268Z,95979.34
2023-12-20T01:52:49.527Z,95979.97
2023-12-20T01:58:01.460Z,95969.47
2023-12-20T02:08:58.797Z,95968.84
2023-12-20T02:20:01.266Z,95972.25
2023-12-20T02:25:57.310Z,95971.03
2023-12-20T02:37:01.673Z,95963.63
2023-12-20T02:48:03.388Z,95966.72
2023-12-20T02:53:27.323Z,95967.38
2023-12-20T02:58:54.320Z,95970.75
2023-12-20T03:04:04.561Z,95972.72
2023-12-20T03:10:05.683Z,95974.53
2023-12-20T03:15:29.924Z,95979.63
2023-12-20T03:20:59.036Z,95985.47
2023-12-20T03:26:06.990Z,95987.84
2023-12-20T03:31:59.566Z,95988.09
2023-12-20T03:43:04.449Z,96006.63
2023-12-20T03:49:01.097Z,96014.31
2023-12-20T03:54:57.759Z,96007.06
2023-12-20T04:00:29.720Z,96008.34
2023-12-20T04:05:59.126Z,96004.97
2023-12-20T04:11:07.268Z,96009.31
2023-12-20T04:16:56.369Z,96008.81
2023-12-20T04:22:04.016Z,96010.25
2023-12-20T04:27:57.063Z,96014.25
2023-12-20T04:33:48.380Z,96017.16
2023-12-20T04:39:01.133Z,96018.56
2023-12-20T04:50:04.184Z,96042.78
2023-12-20T04:56:00.593Z,96038.31
2023-12-20T05:07:06.614Z,96042.97
2023-12-20T05:12:57.209Z,96059.78
2023-12-20T05:18:04.870Z,96070.25
2023-12-20T05:23:55.924Z,96076.56
2023-12-20T05:29:03.463Z,96075.50
2023-12-20T05:39:47.645Z,96086.13
2023-12-20T05:45:01.006Z,96091.06
2023-12-20T05:56:02.786Z,96108.31
2023-12-20T06:07:01.033Z,96117.91
2023-12-20T06:12:59.005Z,96125.94
2023-12-20T06:18:09.489Z,96122.84
2023-12-20T06:23:17.079Z,96130.72
2023-12-20T06:28:27.319Z,96123.59
2023-12-20T06:40:39.616Z,96144.09
2023-12-20T06:53:26.888Z,96142.09
2023-12-20T07:06:04.425Z,96160.75
2023-12-20T07:11:38.557Z,96156.13
2023-12-20T07:16:53.182Z,96168.28
2023-12-20T07:28:58.224Z,96188.03
2023-12-20T07:34:38.090Z,96202.53
2023-12-20T07:40:14.586Z,96200.50
2023-12-20T07:46:42.534Z,96203.44
2023-12-20T07:53:26.286Z,96211.28
2023-12-20T08:09:19.946Z,96226.28
2023-12-20T08:13:34.932Z,96214.56
2023-12-20T08:26:36.969Z,96223.47
2023-12-20T08:44:42.102Z,96244.13
2023-12-20T08:50:21.422Z,96263.56
2023-12-20T08:57:12.432Z,96285.28
2023-12-20T09:02:59.494Z,96285.59
2023-12-20T09:08:23.198Z,96279.88
2023-12-20T09:14:13.390Z,96281.28
2023-12-20T09:19:58.950Z,96278.47
2023-12-20T09:25:19.799Z,96274.63
2023-12-20T09:30:47.631Z,96288.78
2023-12-20T09:35:55.525Z,96277.38
2023-12-20T09:41:09.790Z,96281.97
2023-12-20T09:46:43.968Z,96289.09
2023-12-20T09:51:56.734Z,96290.66
2023-12-20T09:57:15.849Z,96302.38
2023-12-20T10:02:35.568Z,96294.19
2023-12-20T10:07:59.056Z,96276.34
2023-12-20T10:13:20.835Z,96285.13
2023-12-20T10:18:40.852Z,96295.75
2023-12-20T10:23:54.861Z,96278.47
2023-12-20T10:29:16.281Z,96270.47
2023-12-20T10:34:28.029Z,96248.28
2023-12-20T10:39:40.887Z,96248.44
2023-12-20T10:44:53.772Z,96258.31
2023-12-20T10:50:32.364Z,96246.28
2023-12-20T10:55:51.485Z,96249.50
2023-12-20T11:01:42.101Z,96242.28
2023-12-20T11:07:39.319Z,96243.84
2023-12-20T11:13:06.374Z,96240.44
2023-12-20T11:18:32.998Z,96238.13
2023-12-20T11:24:13.546Z,96228.84
2023-12-20T11:29:52.696Z,96229.03
2023-12-20T11:35:24.184Z,96236.88
2023-12-20T11:40:43.429Z,96229.03
2023-12-20T11:46:22.587Z,96223.66
2023-12-20T11:51:30.201Z,96233.03
2023-12-20T11:56:37.817Z,96235.97
2023-12-20T12:07:38.766Z,96229.63
2023-12-20T12:13:04.991Z,96217.75
2023-12-20T12:19:03.449Z,96216.06
2023-12-20T12:24:57.183Z,96203.28
2023-12-20T12:30:05.809Z,96201.59
2023-12-20T12:41:51.061Z,96187.69
2023-12-20T12:46:58.785Z,96188.34
2023-12-20T12:52:07.052Z,96183.56
2023-12-20T12:57:54.376Z,96182.00
2023-12-20T13:03:57.456Z,96186.00
2023-12-20T13:09:14.868Z,96185.69
2023-12-20T13:15:15.570Z,96177.97
2023-12-20T13:21:02.564Z,96183.38
2023-12-20T13:46:18.629Z,96193.22
2023-12-20T14:15:19.737Z,96196.94
2023-12-20T14:23:50.331Z,96169.06
2023-12-20T14:29:18.689Z,96172.25
2023-12-20T14:34:59.220Z,96165.03
2023-12-20T14:46:58.073Z,96170.75
2023-12-20T14:53:06.983Z,96150.28
2023-12-20T14:58:44.495Z,96158.75
2023-12-20T15:03:58.069Z,96158.16
2023-12-20T15:14:51.252Z,96176.16
2023-12-20T15:26:05.508Z,96181.88
2023-12-20T15:37:11.742Z,96168.16
2023-12-20T15:42:19.265Z,96170.78
2023-12-20T15:48:08.481Z,96167.09
2023-12-20T15:54:07.212Z,96166.59
2023-12-20T16:12:34.986Z,96166.16
2023-12-20T16:36:30.004Z,96170.13
2023-12-20T17:00:53.324Z,96162.13
2023-12-20T18:28:32.062Z,96143.47
2023-12-20T18:34:37.470Z,96149.63
2023-12-20T19:11:33.164Z,96125.19
2023-12-20T19:30:07.388Z,96104.06
2023-12-20T19:36:18.224Z,96091.31
2023-12-20T19:42:31.195Z,96084.69
2023-12-20T19:48:42.224Z,96093.28
2023-12-20T19:54:40.660Z,96081.31
2023-12-20T20:07:15.591Z,96077.44
2023-12-20T20:57:50.297Z,96065.13
2023-12-20T21:48:59.796Z,95993.88
2023-12-20T23:07:07.890Z,95904.22
2023-12-20T23:18:07.265Z,95873.72
2023-12-20T23:24:02.243Z,95861.84
2023-12-20T23:29:55.427Z,95859.66
2023-12-20T23:35:15.693Z,95846.59
2023-12-20T23:41:03.608Z,95834.38
2023-12-20T23:52:03.676Z,95815.13
